Aviation Digital Data Service (ADDS)

Output produced by METARs form (2142 UTC 01 December 2021)
found at http://aviationweather.gov/metar/data/
 
KASD 011740Z 0118/0218 18006KT P6SM FEW250 
     FM021000 00000KT 5SM BR SCT130 
     FM021100 00000KT 1/2SM FG SCT003 
     FM021400 00000KT 4SM BR FEW060